createdAt,value
2022-07-27T00:00:11.134Z,98888.28
2022-07-27T00:02:59.598Z,98889.16
2022-07-27T00:05:44.879Z,98886.50
2022-07-27T00:08:30.392Z,98884.16
2022-07-27T00:11:15.640Z,98870.81
2022-07-27T00:14:00.838Z,98870.31
2022-07-27T00:16:46.249Z,98877.16
2022-07-27T00:19:31.378Z,98888.75
2022-07-27T00:22:17.160Z,98901.94
2022-07-27T00:25:02.288Z,98892.03
2022-07-27T00:27:47.730Z,98892.78
2022-07-27T00:30:32.933Z,98889.22
2022-07-27T00:33:18.030Z,98893.22
2022-07-27T00:36:03.481Z,98898.03
2022-07-27T00:38:48.965Z,98893.22
2022-07-27T00:41:34.422Z,98899.59
2022-07-27T00:44:30.512Z,98892.47
2022-07-27T00:47:16.167Z,98904.41
2022-07-27T00:50:02.116Z,98890.88
2022-07-27T00:52:48.612Z,98884.53
2022-07-27T00:55:34.636Z,98888.91
2022-07-27T00:58:20.102Z,98886.09
2022-07-27T01:01:06.344Z,98889.66
2022-07-27T01:03:51.699Z,98883.75
2022-07-27T01:06:37.280Z,98885.78
2022-07-27T01:09:42.040Z,98889.00
2022-07-27T01:12:32.218Z,98894.16
2022-07-27T01:15:17.890Z,98889.78
2022-07-27T01:18:03.862Z,98887.00
2022-07-27T01:20:49.235Z,98897.38
2022-07-27T01:23:35.132Z,98891.78
2022-07-27T01:26:20.514Z,98891.78
2022-07-27T01:29:05.804Z,98886.66
2022-07-27T01:31:51.150Z,98901.84
2022-07-27T01:34:37.006Z,98901.09
2022-07-27T01:37:22.219Z,98899.06
2022-07-27T01:40:08.098Z,98905.41
2022-07-27T01:42:53.420Z,98897.81
2022-07-27T01:45:39.970Z,98903.88
2022-07-27T01:48:26.357Z,98903.09
2022-07-27T01:51:11.773Z,98909.44
2022-07-27T01:53:57.133Z,98903.53
2022-07-27T01:56:42.396Z,98902.28
2022-07-27T01:59:27.732Z,98901.53
2022-07-27T02:02:15.648Z,98896.38
2022-07-27T02:05:01.595Z,98894.41
2022-07-27T02:07:47.503Z,98890.03
2022-07-27T02:10:33.731Z,98890.38
2022-07-27T02:13:22.865Z,98892.03
2022-07-27T02:16:09.743Z,98885.22
2022-07-27T02:19:04.823Z,98896.06
2022-07-27T02:21:51.057Z,98891.28
2022-07-27T02:24:37.948Z,98892.50
2022-07-27T02:27:23.348Z,98889.69
2022-07-27T02:30:10.642Z,98890.94
2022-07-27T02:32:56.295Z,98894.50
2022-07-27T02:35:41.535Z,98898.06
2022-07-27T02:38:26.879Z,98898.53
2022-07-27T02:41:12.141Z,98903.31
2022-07-27T02:43:57.505Z,98897.72
2022-07-27T02:46:43.287Z,98896.97
2022-07-27T02:49:28.486Z,98896.19
2022-07-27T02:52:13.827Z,98894.63
2022-07-27T02:54:59.096Z,98896.19
2022-07-27T02:57:44.512Z,98896.19
2022-07-27T03:00:29.715Z,98895.41
2022-07-27T03:03:15.195Z,98889.03
2022-07-27T03:06:00.466Z,98882.25
2022-07-27T03:08:45.840Z,98889.03
2022-07-27T03:11:31.459Z,98892.28
2022-07-27T03:14:16.948Z,98888.69
2022-07-27T03:17:02.347Z,98889.94
2022-07-27T03:19:49.757Z,98901.88
2022-07-27T03:22:35.212Z,98898.31
2022-07-27T03:25:20.812Z,98900.31
2022-07-27T03:28:06.296Z,98893.19
2022-07-27T03:30:51.693Z,98902.66
2022-07-27T03:33:37.280Z,98893.97
2022-07-27T03:36:22.865Z,98900.00
2022-07-27T03:39:08.206Z,98903.19
2022-07-27T03:41:54.240Z,98900.41
2022-07-27T03:44:39.676Z,98896.06
2022-07-27T03:47:25.059Z,98899.63
2022-07-27T03:50:10.671Z,98900.53
2022-07-27T03:52:56.337Z,98907.66
2022-07-27T03:55:41.657Z,98905.31
2022-07-27T03:58:26.911Z,98906.91
2022-07-27T04:01:12.429Z,98910.13
2022-07-27T04:03:57.664Z,98918.06
2022-07-27T04:06:43.515Z,98922.97
2022-07-27T04:09:28.873Z,98931.66
2022-07-27T04:12:17.396Z,98928.88
2022-07-27T04:15:07.114Z,98920.59
2022-07-27T04:17:54.550Z,98915.84
2022-07-27T04:20:42.561Z,98916.59
2022-07-27T04:23:28.064Z,98929.78
2022-07-27T04:26:13.270Z,98935.03
2022-07-27T04:28:58.761Z,98936.56
2022-07-27T04:31:45.585Z,98937.00
2022-07-27T04:34:31.424Z,98929.53
2022-07-27T04:37:17.206Z,98935.03
2022-07-27T04:40:03.283Z,98938.25
2022-07-27T04:42:49.815Z,98941.81
2022-07-27T04:45:35.641Z,98942.28
2022-07-27T04:48:20.981Z,98948.28
2022-07-27T04:51:06.292Z,98951.09
2022-07-27T04:53:58.233Z,98946.28
2022-07-27T04:56:44.263Z,98951.09
2022-07-27T04:59:29.418Z,98949.50
2022-07-27T05:02:14.882Z,98959.44
2022-07-27T05:05:00.740Z,98963.78
2022-07-27T05:07:46.127Z,98965.47
2022-07-27T05:10:31.703Z,98964.69
2022-07-27T05:13:17.234Z,98979.84
2022-07-27T05:16:02.841Z,98975.06
2022-07-27T05:18:50.918Z,98977.06
2022-07-27T05:21:36.275Z,98981.09
2022-07-27T05:24:22.092Z,98977.53
2022-07-27T05:27:07.650Z,98983.88
2022-07-27T05:29:53.348Z,98983.88
2022-07-27T05:32:38.911Z,98991.91
2022-07-27T05:35:24.327Z,98983.53
2022-07-27T05:38:09.859Z,98976.41
2022-07-27T05:40:55.271Z,98989.44
2022-07-27T05:43:40.553Z,98985.13
2022-07-27T05:46:29.635Z,98980.75
2022-07-27T05:49:18.377Z,98983.88
2022-07-27T05:52:03.647Z,98996.56
2022-07-27T05:54:49.055Z,99000.03
2022-07-27T05:57:35.185Z,98992.91
2022-07-27T06:00:20.697Z,99001.94
2022-07-27T06:03:06.271Z,99007.53
2022-07-27T06:05:52.146Z,99015.44
2022-07-27T06:08:38.173Z,99020.56
2022-07-27T06:11:23.525Z,99024.91
2022-07-27T06:14:08.812Z,99032.06
2022-07-27T06:16:54.865Z,99037.66
2022-07-27T06:19:40.380Z,99047.91
2022-07-27T06:22:26.319Z,99043.13
2022-07-27T06:25:12.319Z,99043.03
2022-07-27T06:27:57.838Z,99037.78
2022-07-27T06:30:43.874Z,99040.25
2022-07-27T06:33:30.897Z,99043.44
2022-07-27T06:36:16.820Z,99045.38
2022-07-27T06:39:02.595Z,99048.59
2022-07-27T06:41:48.225Z,99045.38
2022-07-27T06:44:34.432Z,99030.66
2022-07-27T06:47:19.911Z,99034.22
2022-07-27T06:50:06.583Z,99037.78
2022-07-27T06:52:52.755Z,99038.13
2022-07-27T06:55:38.232Z,99027.31
2022-07-27T06:58:24.250Z,99035.66
2022-07-27T07:01:09.781Z,99032.09
2022-07-27T07:03:58.089Z,99036.44
2022-07-27T07:06:44.500Z,99040.00
2022-07-27T07:09:32.654Z,99041.25
2022-07-27T07:12:21.367Z,99038.78
2022-07-27T07:15:09.189Z,99037.22
2022-07-27T07:17:57.370Z,99035.22
2022-07-27T07:20:46.636Z,99034.91
2022-07-27T07:23:35.222Z,99035.66
2022-07-27T07:26:23.815Z,99040.00
2022-07-27T07:29:12.581Z,99044.38
2022-07-27T07:32:01.649Z,99062.66
2022-07-27T07:34:48.396Z,99056.75
2022-07-27T07:37:35.489Z,99056.31
2022-07-27T07:43:27.366Z,99051.16
2022-07-27T07:46:12.884Z,99053.19
2022-07-27T07:48:58.121Z,99060.78
2022-07-27T07:51:43.574Z,99059.19
2022-07-27T07:54:28.823Z,99060.78
2022-07-27T07:57:14.111Z,99067.13
2022-07-27T07:59:59.933Z,99059.53
2022-07-27T08:02:51.446Z,99059.19
2022-07-27T08:05:37.637Z,99066.03
2022-07-27T08:08:24.692Z,99061.66
2022-07-27T08:11:10.784Z,99062.00
2022-07-27T08:13:56.260Z,99075.59
2022-07-27T08:16:41.695Z,99064.13
2022-07-27T08:19:27.265Z,99062.97
2022-07-27T08:22:13.089Z,99068.66
2022-07-27T08:24:58.710Z,99071.88
2022-07-27T08:27:43.932Z,99076.69
2022-07-27T08:30:33.877Z,99071.13
2022-07-27T08:33:19.419Z,99073.13
2022-07-27T08:36:04.916Z,99071.13
2022-07-27T08:38:50.547Z,99075.13
2022-07-27T08:41:42.071Z,99075.13
2022-07-27T08:44:29.787Z,99072.00
2022-07-27T08:47:16.080Z,99064.41
2022-07-27T08:50:03.350Z,99075.25
2022-07-27T08:53:00.603Z,99067.66
2022-07-27T08:55:47.745Z,99070.78
2022-07-27T08:58:33.186Z,99073.13
2022-07-27T09:01:19.240Z,99076.69
2022-07-27T09:04:04.717Z,99072.22
2022-07-27T09:06:53.161Z,99068.66
2022-07-27T09:09:49.426Z,99079.38
2022-07-27T09:12:35.939Z,99082.63
2022-07-27T09:15:21.434Z,99077.03
2022-07-27T09:18:21.077Z,99077.47
2022-07-27T09:21:24.473Z,99079.81
2022-07-27T09:24:36.766Z,99077.03
2022-07-27T09:27:30.473Z,99084.16
2022-07-27T09:30:18.988Z,99082.19
2022-07-27T09:33:06.602Z,99086.94
2022-07-27T09:35:59.574Z,99083.72
2022-07-27T09:39:01.669Z,99078.16
2022-07-27T09:41:52.274Z,99078.09
2022-07-27T09:44:45.008Z,99078.91
2022-07-27T09:47:32.078Z,99077.38
2022-07-27T09:50:20.825Z,99080.94
2022-07-27T09:53:40.791Z,99077.75
2022-07-27T09:56:32.945Z,99074.94
2022-07-27T09:59:19.581Z,99080.53
2022-07-27T10:02:05.416Z,99078.91
2022-07-27T10:04:50.958Z,99082.19
2022-07-27T10:07:36.748Z,99087.41
2022-07-27T10:10:23.531Z,99084.16
2022-07-27T10:13:08.911Z,99081.50
2022-07-27T10:15:55.305Z,99080.25
2022-07-27T10:18:55.688Z,99083.81
2022-07-27T10:21:45.205Z,99081.38
2022-07-27T10:24:34.781Z,99080.59
2022-07-27T10:27:20.767Z,99077.03
2022-07-27T10:30:06.729Z,99083.72
2022-07-27T10:32:52.280Z,99080.06
2022-07-27T10:35:37.602Z,99082.06
2022-07-27T10:38:23.282Z,99083.53
2022-07-27T10:41:34.934Z,99089.09
2022-07-27T10:44:23.216Z,99085.13
2022-07-27T10:47:08.391Z,99084.66
2022-07-27T10:50:16.363Z,99077.09
2022-07-27T10:53:07.359Z,99079.75
2022-07-27T10:55:53.359Z,99077.84
2022-07-27T10:58:39.373Z,99075.84
2022-07-27T11:01:25.115Z,99072.94
2022-07-27T11:04:11.161Z,99085.66
2022-07-27T11:10:07.350Z,99077.38
2022-07-27T11:12:55.113Z,99063.44
2022-07-27T11:15:59.768Z,99067.81
2022-07-27T11:19:05.285Z,99076.19
2022-07-27T11:21:52.513Z,99071.38
2022-07-27T11:24:37.840Z,99056.66
2022-07-27T11:27:25.342Z,99065.78
2022-07-27T11:30:25.853Z,99069.34
2022-07-27T11:33:11.369Z,99066.56
2022-07-27T11:36:02.224Z,99066.13
2022-07-27T11:38:54.767Z,99070.59
2022-07-27T11:42:08.011Z,99072.94
2022-07-27T11:44:47.652Z,99064.25
2022-07-27T11:47:34.194Z,99054.63
2022-07-27T11:50:19.727Z,99066.56
2022-07-27T11:53:06.820Z,99067.03
2022-07-27T11:55:52.836Z,99052.28
2022-07-27T11:59:01.534Z,99061.44
2022-07-27T12:01:53.934Z,99057.09
2022-07-27T12:04:42.419Z,99058.66
2022-07-27T12:07:33.283Z,99043.91
2022-07-27T12:10:20.264Z,99049.97
2022-07-27T12:13:06.257Z,99042.81
2022-07-27T12:16:02.811Z,99032.44
2022-07-27T12:18:48.456Z,99030.88
2022-07-27T12:21:33.928Z,99040.00
2022-07-27T12:24:19.895Z,99022.06
2022-07-27T12:27:11.934Z,99024.84
2022-07-27T12:30:16.517Z,99027.63
2022-07-27T12:33:04.523Z,99022.84
2022-07-27T12:35:50.498Z,99027.63
2022-07-27T12:38:43.645Z,99016.47
2022-07-27T12:41:32.581Z,99020.47
2022-07-27T12:44:18.185Z,99014.13
2022-07-27T12:47:27.644Z,99011.66
2022-07-27T12:50:19.821Z,99005.31
2022-07-27T12:53:05.638Z,99000.94
2022-07-27T12:55:51.304Z,98996.47
2022-07-27T12:58:37.477Z,98997.38
2022-07-27T13:01:22.965Z,99003.06
2022-07-27T13:04:08.728Z,98997.50
2022-07-27T13:06:54.100Z,99002.97
2022-07-27T13:10:02.967Z,98995.03
2022-07-27T13:12:46.669Z,98997.72
2022-07-27T13:15:32.069Z,98993.38
2022-07-27T13:18:22.852Z,98995.72
2022-07-27T13:21:09.408Z,99007.22
2022-07-27T13:23:54.915Z,99005.66
2022-07-27T13:26:42.084Z,99006.00
2022-07-27T13:29:28.538Z,99010.66
2022-07-27T13:32:14.164Z,99014.22
2022-07-27T13:35:04.563Z,99011.44
2022-07-27T13:37:49.901Z,99001.06
2022-07-27T13:40:35.173Z,99013.91
2022-07-27T13:43:20.492Z,99012.34
2022-07-27T13:46:08.438Z,99014.69
2022-07-27T13:48:53.666Z,99003.06
2022-07-27T13:51:38.893Z,99001.38
2022-07-27T13:54:24.714Z,99020.47
2022-07-27T13:57:10.301Z,99016.91
2022-07-27T13:59:57.655Z,99009.31
2022-07-27T14:02:44.767Z,99009.31
2022-07-27T14:05:31.277Z,99001.28
2022-07-27T14:08:18.863Z,99009.31
2022-07-27T14:11:04.516Z,99004.50
2022-07-27T14:13:50.391Z,99004.06
2022-07-27T14:17:01.045Z,99005.50
2022-07-27T14:19:50.241Z,99010.31
2022-07-27T14:22:35.759Z,99003.06
2022-07-27T14:25:21.317Z,99001.81
2022-07-27T14:28:06.640Z,99013.78
2022-07-27T14:30:55.836Z,99000.59
2022-07-27T14:33:41.978Z,99004.59
2022-07-27T14:36:27.302Z,98993.44
2022-07-27T14:39:13.342Z,98989.44
2022-07-27T14:41:59.029Z,99000.94
2022-07-27T14:44:47.620Z,98999.03
2022-07-27T14:47:33.389Z,98996.56
2022-07-27T14:50:19.092Z,98994.13
2022-07-27T14:53:05.097Z,98996.47
2022-07-27T14:55:50.690Z,99003.50
2022-07-27T14:58:36.089Z,98995.44
2022-07-27T15:01:21.555Z,98988.63
2022-07-27T15:04:06.857Z,98994.53
2022-07-27T15:06:52.522Z,98986.16
2022-07-27T15:09:37.729Z,98981.34
2022-07-27T15:12:23.108Z,98986.94
2022-07-27T15:15:09.104Z,98984.94
2022-07-27T15:17:54.649Z,98980.25
2022-07-27T15:20:40.608Z,98984.38
2022-07-27T15:23:26.635Z,98989.19
2022-07-27T15:26:13.191Z,98978.03
2022-07-27T15:28:59.118Z,98974.00
2022-07-27T15:31:44.722Z,98982.06
2022-07-27T15:34:30.548Z,98977.38
2022-07-27T15:37:16.405Z,98986.50
2022-07-27T15:40:22.129Z,98973.38
2022-07-27T15:43:12.231Z,98974.13
2022-07-27T15:45:57.932Z,98977.38
2022-07-27T15:48:43.219Z,98980.16
2022-07-27T15:51:28.815Z,98978.63
2022-07-27T15:54:15.391Z,98982.94
2022-07-27T15:57:01.054Z,98972.56
2022-07-27T15:59:46.687Z,98976.16
2022-07-27T16:02:32.391Z,98972.13
2022-07-27T16:05:20.451Z,98980.16
2022-07-27T16:08:09.407Z,98974.56
2022-07-27T16:10:55.112Z,98974.25
2022-07-27T16:13:40.652Z,98975.50
2022-07-27T16:16:30.676Z,98970.34
2022-07-27T16:19:17.138Z,98973.13
2022-07-27T16:22:04.092Z,98967.22
2022-07-27T16:24:49.747Z,98971.25
2022-07-27T16:27:35.254Z,98962.88
2022-07-27T16:30:21.717Z,98964.91
2022-07-27T16:33:07.521Z,98959.31
2022-07-27T16:35:53.364Z,98950.63
2022-07-27T16:38:48.020Z,98954.63
2022-07-27T16:41:35.742Z,98953.06
2022-07-27T16:44:21.629Z,98951.50
2022-07-27T16:47:09.667Z,98958.44
2022-07-27T16:49:56.090Z,98952.84
2022-07-27T16:52:42.022Z,98955.63
2022-07-27T16:55:28.589Z,98965.44
2022-07-27T16:58:14.238Z,98953.19
2022-07-27T17:01:00.679Z,98949.94
2022-07-27T17:03:48.971Z,98963.13
2022-07-27T17:06:35.417Z,98953.19
2022-07-27T17:09:20.857Z,98958.31
2022-07-27T17:12:06.967Z,98959.09
2022-07-27T17:14:55.249Z,98953.97
2022-07-27T17:17:40.705Z,98961.13
2022-07-27T17:20:33.008Z,98958.00
2022-07-27T17:23:21.284Z,98956.75
2022-07-27T17:26:08.064Z,98958.00
2022-07-27T17:28:54.073Z,98959.19
2022-07-27T17:31:39.471Z,98953.75
2022-07-27T17:34:24.728Z,98963.66
2022-07-27T17:37:10.313Z,98965.25
2022-07-27T17:39:55.729Z,98968.47
2022-07-27T17:42:41.521Z,98960.09
2022-07-27T17:45:27.466Z,98957.31
2022-07-27T17:48:13.430Z,98958.56
2022-07-27T17:50:58.745Z,98961.34
2022-07-27T17:53:44.264Z,98955.78
2022-07-27T17:56:30.898Z,98961.78
2022-07-27T17:59:37.067Z,98964.69
2022-07-27T18:02:25.264Z,98965.50
2022-07-27T18:05:11.528Z,98969.59
2022-07-27T18:07:57.573Z,98967.59
2022-07-27T18:10:45.226Z,98968.06
2022-07-27T18:13:37.945Z,98972.38
2022-07-27T18:16:26.732Z,98968.06
2022-07-27T18:19:13.800Z,98971.19
2022-07-27T18:21:59.962Z,98969.59
2022-07-27T18:24:48.048Z,98970.06
2022-07-27T18:27:35.790Z,98975.19
2022-07-27T18:30:22.716Z,98976.41
2022-07-27T18:33:08.121Z,98981.56
2022-07-27T18:35:54.587Z,98975.31
2022-07-27T18:38:42.240Z,98986.88
2022-07-27T18:41:28.403Z,98981.75
2022-07-27T18:44:13.914Z,98985.75
2022-07-27T18:46:59.243Z,98988.13
2022-07-27T18:49:44.538Z,98987.25
2022-07-27T18:52:30.079Z,98994.47
2022-07-27T18:55:18.193Z,98999.63
2022-07-27T18:58:04.197Z,99001.53
2022-07-27T19:00:49.602Z,99011.44
2022-07-27T19:03:36.197Z,99011.44
2022-07-27T19:06:22.453Z,99025.84
2022-07-27T19:09:10.169Z,99024.63
2022-07-27T19:11:55.672Z,99042.13
2022-07-27T19:14:41.230Z,99044.81
2022-07-27T19:17:27.462Z,99058.00
2022-07-27T19:20:15.543Z,99057.22
2022-07-27T19:23:00.959Z,99068.38
2022-07-27T19:25:46.611Z,99071.94
2022-07-27T19:28:32.181Z,99071.03
2022-07-27T19:31:22.436Z,99063.22
2022-07-27T19:34:09.448Z,99072.28
2022-07-27T19:36:54.952Z,99073.16
2022-07-27T19:40:02.610Z,99072.38
2022-07-27T19:42:46.228Z,99075.16
2022-07-27T19:45:31.862Z,99080.41
2022-07-27T19:48:17.216Z,99078.16
2022-07-27T19:51:06.859Z,99081.03
2022-07-27T19:53:53.220Z,99082.63
2022-07-27T19:56:38.544Z,99081.03
2022-07-27T19:59:23.694Z,99094.19
2022-07-27T20:02:09.285Z,99085.84
2022-07-27T20:04:54.633Z,99086.63
2022-07-27T20:07:39.903Z,99089.06
2022-07-27T20:10:26.042Z,99096.31
2022-07-27T20:13:11.771Z,99099.78
2022-07-27T20:15:57.261Z,99094.31
2022-07-27T20:18:42.598Z,99095.97
2022-07-27T20:21:27.800Z,99100.78
2022-07-27T20:24:14.135Z,99102.44
2022-07-27T20:26:59.517Z,99097.66
2022-07-27T20:29:45.022Z,99100.91
2022-07-27T20:32:30.136Z,99107.25
2022-07-27T20:35:16.175Z,99107.69
2022-07-27T20:38:01.774Z,99116.06
2022-07-27T20:40:46.979Z,99110.59
2022-07-27T20:43:32.871Z,99105.00
2022-07-27T20:46:18.607Z,99115.81
2022-07-27T20:49:04.797Z,99112.69
2022-07-27T20:51:50.636Z,99114.69
2022-07-27T20:54:38.420Z,99116.34
2022-07-27T20:57:23.803Z,99113.56
2022-07-27T21:00:10.611Z,99116.81
2022-07-27T21:02:56.607Z,99114.47
2022-07-27T21:05:42.262Z,99116.34
2022-07-27T21:08:28.678Z,99119.13
2022-07-27T21:11:14.557Z,99125.06
2022-07-27T21:14:01.149Z,99134.31
2022-07-27T21:16:46.593Z,99133.53
2022-07-27T21:19:32.326Z,99131.97
2022-07-27T21:22:17.595Z,99141.09
2022-07-27T21:25:03.368Z,99145.56
2022-07-27T21:27:50.282Z,99141.22
2022-07-27T21:30:36.415Z,99144.34
2022-07-27T21:33:21.807Z,99137.66
2022-07-27T21:36:07.843Z,99138.88
2022-07-27T21:38:53.398Z,99128.50
2022-07-27T21:41:39.181Z,99134.88
2022-07-27T21:44:24.695Z,99132.59
2022-07-27T21:47:13.725Z,99132.16
2022-07-27T21:49:59.911Z,99135.84
2022-07-27T21:52:45.054Z,99141.78
2022-07-27T21:55:30.276Z,99152.22
2022-07-27T21:58:16.560Z,99156.50
2022-07-27T22:01:01.927Z,99157.34
2022-07-27T22:03:47.374Z,99162.94
2022-07-27T22:06:32.554Z,99159.78
2022-07-27T22:09:20.108Z,99161.81
2022-07-27T22:12:06.047Z,99166.94
2022-07-27T22:14:51.503Z,99168.16
2022-07-27T22:17:46.147Z,99181.78
2022-07-27T22:20:36.596Z,99178.19
2022-07-27T22:23:21.972Z,99174.28
2022-07-27T22:26:07.276Z,99175.84
2022-07-27T22:28:52.673Z,99177.53
2022-07-27T22:31:38.263Z,99180.75
2022-07-27T22:34:23.529Z,99180.38
2022-07-27T22:37:09.193Z,99185.63
2022-07-27T22:39:54.816Z,99189.66
2022-07-27T22:42:40.036Z,99184.06
2022-07-27T22:45:26.102Z,99188.06
2022-07-27T22:48:12.028Z,99186.16
2022-07-27T22:50:57.511Z,99191.38
2022-07-27T22:53:42.961Z,99193.47
2022-07-27T22:56:28.186Z,99190.00
2022-07-27T22:59:13.879Z,99192.88
2022-07-27T23:02:00.097Z,99194.50
2022-07-27T23:04:45.754Z,99193.81
2022-07-27T23:07:31.385Z,99195.81
2022-07-27T23:10:35.122Z,99194.69
2022-07-27T23:13:22.936Z,99194.34
2022-07-27T23:16:08.251Z,99186.09
2022-07-27T23:18:54.831Z,99186.94
2022-07-27T23:21:41.752Z,99186.94
2022-07-27T23:24:29.061Z,99193.81
2022-07-27T23:27:15.123Z,99191.03
2022-07-27T23:30:00.494Z,99191.91
2022-07-27T23:32:45.790Z,99195.56
2022-07-27T23:35:31.407Z,99198.78
2022-07-27T23:38:17.107Z,99200.00
2022-07-27T23:41:02.411Z,99195.31
2022-07-27T23:43:47.808Z,99196.19
2022-07-27T23:46:33.275Z,99188.69
2022-07-27T23:49:18.718Z,99187.91
2022-07-27T23:52:04.715Z,99193.47
2022-07-27T23:54:50.188Z,99192.00
2022-07-27T23:57:35.630Z,99185.28
